Time;durP1;ratioP1;P1;durP2;ratioP2;P2;SDS_P1;SDS_P2;PMS_P1;PMS_P2;Temp;Humidity;BMP_temperature;BMP_pressure;BME280_temperature;BME280_humidity;BME280_pressure;Samples;Min_cycle;Max_cycle;Signal;HPM_P1;HPM_P2
2022/05/29 00:01:56;;;;;;;4.00;3.67;;;13.90;87.10;;;;;;5052462;28;20801;-68
2022/05/29 00:04:23;;;;;;;3.70;3.40;;;13.80;86.80;;;;;;5051858;28;20406;-68
2022/05/29 00:06:52;;;;;;;3.57;3.37;;;13.80;87.10;;;;;;5052690;28;20424;-68
2022/05/29 00:09:31;;;;;;;3.50;3.20;;;13.80;87.80;;;;;;5051599;28;20502;-68
2022/05/29 00:11:58;;;;;;;6.73;3.20;;;13.80;88.00;;;;;;5052441;28;20428;-68
2022/05/29 00:14:23;;;;;;;6.23;3.43;;;13.80;87.80;;;;;;5051456;28;20494;-68
2022/05/29 00:16:49;;;;;;;3.43;3.23;;;13.70;87.50;;;;;;5051031;28;20527;-68
2022/05/29 00:19:15;;;;;;;3.17;2.93;;;13.60;87.40;;;;;;5051622;28;20202;-68
2022/05/29 00:21:40;;;;;;;4.00;3.60;;;13.60;87.70;;;;;;5052315;28;20225;-68
2022/05/29 00:24:08;;;;;;;4.13;3.30;;;13.60;87.80;;;;;;5053817;28;20263;-68
2022/05/29 00:26:33;;;;;;;4.90;3.60;;;13.60;88.40;;;;;;5055388;28;20203;-68
2022/05/29 00:28:59;;;;;;;6.27;3.50;;;13.60;89.10;;;;;;5056060;28;20410;-68
2022/05/29 00:31:26;;;;;;;3.93;3.43;;;13.60;89.70;;;;;;5055134;28;20171;-68
2022/05/29 00:33:51;;;;;;;6.80;4.20;;;13.50;89.40;;;;;;5055912;28;20173;-68
2022/05/29 00:36:18;;;;;;;3.90;3.60;;;13.50;89.50;;;;;;5055193;28;20468;-69
2022/05/29 00:38:46;;;;;;;4.00;3.63;;;13.60;89.90;;;;;;5055595;28;20915;-68
2022/05/29 00:41:31;;;;;;;4.20;3.80;;;13.60;90.00;;;;;;5056075;28;20407;-68
2022/05/29 00:44:21;;;;;;;3.57;3.23;;;13.50;89.80;;;;;;5055891;28;20502;-68
2022/05/29 00:46:52;;;;;;;5.17;3.27;;;13.60;90.20;;;;;;5056007;28;20406;-68
2022/05/29 00:49:38;;;;;;;3.43;3.17;;;13.60;90.30;;;;;;5054660;28;20781;-68
2022/05/29 00:52:08;;;;;;;3.87;3.57;;;13.60;90.20;;;;;;5055807;28;20431;-68
2022/05/29 00:54:40;;;;;;;4.60;3.20;;;13.60;90.50;;;;;;5053722;28;20458;-68
2022/05/29 00:57:06;;;;;;;3.13;2.93;;;13.60;90.30;;;;;;5055581;28;20785;-68
2022/05/29 00:59:33;;;;;;;3.40;3.20;;;13.60;90.40;;;;;;5054864;28;20403;-68
2022/05/29 01:02:01;;;;;;;3.83;3.37;;;13.60;90.30;;;;;;5055564;28;20184;-68
2022/05/29 01:04:27;;;;;;;3.90;3.50;;;13.60;90.30;;;;;;5054817;28;20409;-68
2022/05/29 01:06:53;;;;;;;3.60;3.33;;;13.60;90.30;;;;;;5055357;28;20413;-69
2022/05/29 01:09:20;;;;;;;5.27;4.77;;;13.60;90.40;;;;;;5054743;28;20908;-68
2022/05/29 01:12:02;;;;;;;4.07;3.30;;;13.60;90.30;;;;;;5055175;28;20498;-68
2022/05/29 01:14:58;;;;;;;3.37;3.10;;;13.60;90.10;;;;;;5054655;28;20169;-68
2022/05/29 01:17:53;;;;;;;3.40;3.07;;;13.50;90.20;;;;;;5051936;28;20533;-68
2022/05/29 01:20:38;;;;;;;3.70;3.30;;;13.50;90.40;;;;;;5054360;28;20458;-68
2022/05/29 01:23:41;;;;;;;4.90;3.50;;;13.40;90.80;;;;;;5055176;28;20417;-68
2022/05/29 01:26:40;;;;;;;4.00;3.60;;;13.40;90.60;;;;;;5055000;28;20490;-68
2022/05/29 01:29:10;;;;;;;3.80;3.50;;;13.30;90.50;;;;;;5055295;28;20747;-68
2022/05/29 01:31:42;;;;;;;3.70;3.40;;;13.20;90.80;;;;;;5054342;28;20814;-68
2022/05/29 01:34:40;;;;;;;4.53;3.50;;;13.20;91.20;;;;;;5054711;28;20505;-68
2022/05/29 01:37:15;;;;;;;5.20;3.47;;;13.10;91.30;;;;;;5054142;28;20462;-68
2022/05/29 01:39:49;;;;;;;3.97;3.60;;;13.10;92.80;;;;;;5053909;28;20400;-68
2022/05/29 01:42:43;;;;;;;3.97;3.60;;;13.10;92.40;;;;;;5054700;28;20397;-68
2022/05/29 01:45:18;;;;;;;4.27;3.27;;;13.00;91.70;;;;;;5054449;28;20389;-68
2022/05/29 01:47:49;;;;;;;6.10;3.50;;;12.90;91.70;;;;;;5052599;28;20406;-68
2022/05/29 01:50:33;;;;;;;5.00;4.10;;;13.00;91.90;;;;;;5053148;28;20773;-68
2022/05/29 01:53:13;;;;;;;3.77;3.57;;;12.90;92.00;;;;;;5054454;28;20439;-68
2022/05/29 01:55:48;;;;;;;3.57;3.37;;;12.90;92.00;;;;;;5053874;28;20395;-68
2022/05/29 01:58:19;;;;;;;4.50;3.40;;;12.80;92.10;;;;;;5054584;28;20390;-68
2022/05/29 02:00:47;;;;;;;3.70;3.03;;;12.80;92.20;;;;;;5054502;28;20405;-68
2022/05/29 02:03:28;;;;;;;3.40;3.20;;;12.80;92.00;;;;;;5054316;28;20411;-68
2022/05/29 02:05:58;;;;;;;4.27;3.50;;;12.70;92.00;;;;;;5054328;28;20392;-69
2022/05/29 02:08:52;;;;;;;4.47;3.37;;;12.70;92.20;;;;;;5053573;28;20498;-68
2022/05/29 02:11:22;;;;;;;4.30;3.67;;;12.70;92.20;;;;;;5054095;28;20408;-68
2022/05/29 02:14:18;;;;;;;3.40;3.20;;;12.70;92.30;;;;;;5034353;28;20394;-68
2022/05/29 02:16:54;;;;;;;6.70;3.90;;;12.60;92.50;;;;;;5028587;28;20871;-68
2022/05/29 02:19:27;;;;;;;6.73;4.10;;;12.60;92.80;;;;;;5034316;28;20881;-68
2022/05/29 02:22:05;;;;;;;3.90;3.57;;;12.60;92.80;;;;;;5034375;28;20805;-68
2022/05/29 02:24:37;;;;;;;3.90;3.60;;;12.50;92.90;;;;;;5033503;28;20409;-68
2022/05/29 02:27:26;;;;;;;4.37;4.00;;;12.50;93.20;;;;;;5051436;28;20415;-68
2022/05/29 02:29:53;;;;;;;5.90;4.43;;;12.50;93.70;;;;;;5053964;28;20454;-68
2022/05/29 02:32:28;;;;;;;6.67;3.77;;;12.50;93.80;;;;;;5054066;28;20879;-68
2022/05/29 02:35:12;;;;;;;4.73;4.20;;;12.50;93.70;;;;;;5053809;28;20399;-68
2022/05/29 02:37:55;;;;;;;7.70;4.60;;;12.60;95.00;;;;;;5052630;28;20955;-68
2022/05/29 02:40:41;;;;;;;4.43;4.13;;;12.60;95.30;;;;;;5053295;28;20416;-68
2022/05/29 02:43:15;;;;;;;4.80;4.27;;;12.60;94.10;;;;;;5053536;28;20477;-68
2022/05/29 02:46:12;;;;;;;4.97;4.23;;;12.50;93.60;;;;;;5053210;28;20491;-68
2022/05/29 02:48:48;;;;;;;4.93;4.50;;;12.60;94.00;;;;;;5050743;28;20412;-68
2022/05/29 02:51:35;;;;;;;4.53;4.10;;;12.60;94.20;;;;;;5053271;28;20424;-68
2022/05/29 02:54:01;;;;;;;5.23;4.20;;;12.50;94.50;;;;;;5053149;28;20393;-68
2022/05/29 02:56:27;;;;;;;4.97;4.47;;;12.60;94.80;;;;;;5052583;28;20463;-69
2022/05/29 02:58:57;;;;;;;4.50;4.20;;;12.60;94.70;;;;;;5053252;28;20389;-68
2022/05/29 03:01:45;;;;;;;4.50;4.10;;;12.70;94.60;;;;;;5053021;28;20182;-73
2022/05/29 03:04:36;;;;;;;5.03;4.27;;;12.50;94.00;;;;;;5053251;28;20464;-68
2022/05/29 03:07:13;;;;;;;4.63;4.23;;;12.40;94.20;;;;;;5068501;28;20438;-68
2022/05/29 03:09:47;;;;;;;4.23;3.93;;;12.30;94.30;;;;;;5052535;28;20400;-68
2022/05/29 03:12:20;;;;;;;4.60;4.20;;;12.30;94.60;;;;;;5052757;28;20401;-68
2022/05/29 03:14:52;;;;;;;5.00;4.53;;;12.30;94.50;;;;;;5052714;28;20462;-68
2022/05/29 03:17:27;;;;;;;4.57;4.17;;;12.30;94.70;;;;;;5052404;28;20455;-68
2022/05/29 03:19:56;;;;;;;5.50;4.27;;;12.40;94.90;;;;;;5052509;28;20399;-68
2022/05/29 03:22:32;;;;;;;4.70;4.30;;;12.30;95.20;;;;;;5052939;28;20397;-68
2022/05/29 03:25:23;;;;;;;7.83;4.87;;;12.30;95.30;;;;;;5053057;28;20396;-68
2022/05/29 03:27:52;;;;;;;4.70;4.40;;;12.30;95.40;;;;;;5052226;28;20396;-68
2022/05/29 03:30:28;;;;;;;4.10;3.80;;;12.40;95.70;;;;;;5052978;28;20418;-68
2022/05/29 03:32:57;;;;;;;4.23;3.80;;;12.50;95.50;;;;;;5052870;28;20388;-68
2022/05/29 03:35:29;;;;;;;5.07;4.57;;;12.40;95.60;;;;;;5052546;28;20416;-68
2022/05/29 03:37:57;;;;;;;5.60;4.17;;;12.50;95.60;;;;;;5052348;28;20516;-68
2022/05/29 03:40:29;;;;;;;6.23;5.50;;;12.50;95.60;;;;;;5052951;28;20752;-68
2022/05/29 03:42:56;;;;;;;5.23;4.77;;;12.50;95.70;;;;;;5052793;28;20436;-68
2022/05/29 03:45:22;;;;;;;4.20;3.90;;;12.60;95.80;;;;;;5052537;28;20408;-68
2022/05/29 03:47:48;;;;;;;5.33;3.93;;;12.60;96.00;;;;;;5051959;28;20937;-68
2022/05/29 03:50:17;;;;;;;5.10;4.70;;;12.60;96.10;;;;;;5052388;28;20421;-68
2022/05/29 03:52:44;;;;;;;4.87;4.43;;;12.60;96.30;;;;;;5051981;28;20404;-68
2022/05/29 03:55:12;;;;;;;4.80;4.50;;;12.40;96.00;;;;;;5052336;28;20409;-68
2022/05/29 03:57:38;;;;;;;5.80;4.40;;;12.40;96.50;;;;;;5051806;28;20797;-68
2022/05/29 04:00:05;;;;;;;5.93;4.90;;;12.40;96.60;;;;;;5056062;28;20404;-68
2022/05/29 04:02:31;;;;;;;6.83;4.80;;;12.50;96.70;;;;;;5056019;28;20182;-69
2022/05/29 04:04:57;;;;;;;6.80;5.90;;;12.60;97.10;;;;;;5056822;28;20895;-68
2022/05/29 04:12:03;;;;;;;5.80;5.30;;;12.60;97.30;;;;;;5056333;28;20739;-68
2022/05/29 04:12:53;;;;;;;9.33;5.40;;;12.80;97.00;;;;;;5056420;28;20463;-68
2022/05/29 04:15:19;;;;;;;5.80;5.20;;;12.80;97.00;;;;;;5056735;28;20504;-68
2022/05/29 04:17:45;;;;;;;4.97;4.57;;;12.90;96.70;;;;;;5054047;28;21093;-68
2022/05/29 04:20:11;;;;;;;6.47;4.50;;;13.00;96.60;;;;;;5056354;28;20244;-68
2022/05/29 04:22:36;;;;;;;6.10;5.50;;;13.00;96.50;;;;;;5055658;28;20164;-68
2022/05/29 04:25:02;;;;;;;7.67;5.23;;;13.10;96.30;;;;;;5056123;28;20429;-69
2022/05/29 04:27:28;;;;;;;5.67;4.80;;;13.10;96.40;;;;;;5056097;28;20174;-68
2022/05/29 04:29:54;;;;;;;6.27;5.07;;;13.10;96.20;;;;;;5056089;28;20244;-68
2022/05/29 04:33:05;;;;;;;5.40;5.00;;;13.20;96.30;;;;;;5055999;28;20405;-68
2022/05/29 04:35:06;;;;;;;4.90;4.40;;;13.20;96.30;;;;;;5052925;28;20266;-68
2022/05/29 04:37:32;;;;;;;8.30;5.40;;;13.30;96.40;;;;;;5066313;28;20460;-68
2022/05/29 04:39:57;;;;;;;5.07;4.67;;;13.40;96.40;;;;;;5055684;28;20418;-68
2022/05/29 04:42:23;;;;;;;6.50;5.13;;;13.40;96.80;;;;;;5057790;28;20185;-68
2022/05/29 04:44:49;;;;;;;6.77;5.00;;;13.50;96.90;;;;;;5054947;28;20602;-68
2022/05/29 04:47:15;;;;;;;5.73;5.03;;;13.50;96.80;;;;;;5037432;28;20502;-69
2022/05/29 04:49:40;;;;;;;5.47;4.57;;;13.50;97.20;;;;;;5054510;28;20185;-69
2022/05/29 04:52:08;;;;;;;8.40;5.43;;;13.60;97.10;;;;;;5055938;28;20179;-68
2022/05/29 04:54:38;;;;;;;8.67;5.53;;;13.60;96.70;;;;;;5055056;28;20171;-68
2022/05/29 04:57:06;;;;;;;5.80;5.30;;;13.70;96.70;;;;;;5054507;28;20942;-69
2022/05/29 04:59:32;;;;;;;6.50;5.47;;;13.70;97.10;;;;;;5054109;28;20793;-72
2022/05/29 05:01:59;;;;;;;5.07;4.67;;;13.90;97.20;;;;;;5051431;28;20433;-69
2022/05/29 05:04:25;;;;;;;6.10;5.13;;;14.20;96.60;;;;;;5043444;28;20840;-68
2022/05/29 05:06:58;;;;;;;5.80;5.17;;;14.40;96.00;;;;;;5052153;28;20528;-69
2022/05/29 05:09:25;;;;;;;7.37;5.93;;;14.60;95.40;;;;;;5054431;28;20427;-68
2022/05/29 05:11:52;;;;;;;6.20;5.70;;;14.80;95.20;;;;;;5051885;28;20420;-69
2022/05/29 05:14:20;;;;;;;6.60;5.20;;;14.90;94.80;;;;;;5054778;28;20427;-68
2022/05/29 05:16:46;;;;;;;6.30;4.87;;;15.00;94.30;;;;;;5052491;28;20521;-68
2022/05/29 05:19:13;;;;;;;6.47;5.77;;;15.20;94.30;;;;;;5054832;28;20420;-68
2022/05/29 05:21:42;;;;;;;5.90;5.27;;;15.30;93.70;;;;;;5053073;28;20464;-68
2022/05/29 05:24:08;;;;;;;6.70;5.30;;;15.30;92.90;;;;;;5052578;28;20453;-68
2022/05/29 05:26:35;;;;;;;6.27;5.70;;;15.20;92.80;;;;;;5054296;28;20417;-72
2022/05/29 05:29:01;;;;;;;4.90;4.37;;;15.10;93.60;;;;;;5051941;28;20432;-67
2022/05/29 05:31:27;;;;;;;5.50;5.03;;;15.00;93.90;;;;;;5042882;28;20420;-68
2022/05/29 05:33:53;;;;;;;4.70;4.40;;;14.80;94.00;;;;;;5037182;28;20437;-70
2022/05/29 05:36:19;;;;;;;5.27;4.83;;;14.80;94.20;;;;;;5044253;28;20217;-70
2022/05/29 05:38:45;;;;;;;5.27;4.73;;;14.60;95.10;;;;;;5048356;28;20424;-69
2022/05/29 05:41:13;;;;;;;5.37;4.80;;;14.60;95.90;;;;;;5053438;28;20428;-68
2022/05/29 05:43:39;;;;;;;5.63;4.90;;;14.70;96.40;;;;;;5051637;28;20794;-69
2022/05/29 05:46:11;;;;;;;6.33;5.57;;;14.90;95.70;;;;;;5046406;28;20436;-68
2022/05/29 05:48:38;;;;;;;7.70;5.70;;;15.10;95.20;;;;;;5049223;28;20965;-74
2022/05/29 05:51:05;;;;;;;7.10;6.03;;;15.20;95.00;;;;;;5053723;28;20904;-69
2022/05/29 05:53:30;;;;;;;6.60;6.00;;;15.40;94.90;;;;;;5049437;28;20834;-68
2022/05/29 05:55:56;;;;;;;7.47;5.80;;;15.40;94.80;;;;;;5036127;28;20509;-69
2022/05/29 05:58:22;;;;;;;6.33;5.80;;;15.40;94.80;;;;;;5033949;28;20180;-69
2022/05/29 06:00:49;;;;;;;7.00;6.30;;;15.40;94.40;;;;;;5045653;28;20265;-69
2022/05/29 06:03:15;;;;;;;7.53;6.83;;;15.50;94.50;;;;;;5052893;28;20412;-68
2022/05/29 06:05:42;;;;;;;6.90;6.30;;;15.50;94.70;;;;;;5053405;28;20441;-69
2022/05/29 06:08:07;;;;;;;6.53;5.93;;;15.50;94.80;;;;;;5053862;28;20422;-69
2022/05/29 06:10:34;;;;;;;7.23;6.53;;;15.50;94.70;;;;;;5053827;28;20415;-69
2022/05/29 06:13:04;;;;;;;6.87;6.27;;;15.40;94.70;;;;;;5052908;28;20881;-68
2022/05/29 06:15:30;;;;;;;7.57;6.97;;;15.30;95.00;;;;;;5053438;28;20989;-68
2022/05/29 06:17:56;;;;;;;7.27;6.43;;;15.40;95.70;;;;;;5051433;28;20520;-68
2022/05/29 06:20:22;;;;;;;8.00;7.30;;;15.40;95.40;;;;;;5053302;28;20467;-69
2022/05/29 06:22:48;;;;;;;10.07;7.63;;;15.30;95.30;;;;;;5056188;28;20669;-69
2022/05/29 06:25:14;;;;;;;8.50;7.70;;;15.50;96.10;;;;;;5054410;28;20509;-69
2022/05/29 06:27:43;;;;;;;8.67;7.87;;;15.40;95.80;;;;;;5051666;28;20793;-70
2022/05/29 06:30:12;;;;;;;8.17;7.37;;;15.40;95.70;;;;;;5050213;28;20417;-69
2022/05/29 06:32:38;;;;;;;8.30;7.43;;;15.40;97.70;;;;;;5041604;28;20822;-74
2022/05/29 06:35:10;;;;;;;8.97;8.07;;;15.60;99.10;;;;;;5051587;28;20478;-68
2022/05/29 06:37:39;;;;;;;9.60;8.70;;;15.70;98.00;;;;;;5052569;28;20441;-69
2022/05/29 06:40:06;;;;;;;8.83;7.90;;;15.80;97.60;;;;;;5052815;28;20451;-69
2022/05/29 06:42:32;;;;;;;12.47;10.00;;;15.90;98.10;;;;;;5049209;28;20488;-71
2022/05/29 06:44:59;;;;;;;12.50;11.30;;;16.20;95.90;;;;;;5051131;28;20906;-70
2022/05/29 06:47:25;;;;;;;10.53;9.50;;;16.10;94.30;;;;;;5051199;28;20487;-70
2022/05/29 06:49:51;;;;;;;12.17;10.93;;;15.90;94.20;;;;;;5052766;28;20505;-70
2022/05/29 06:52:18;;;;;;;11.70;10.53;;;15.70;94.50;;;;;;5051173;28;20487;-70
2022/05/29 06:54:45;;;;;;;11.60;10.57;;;15.50;95.10;;;;;;5052194;28;20761;-70
2022/05/29 06:57:12;;;;;;;11.43;10.27;;;15.20;95.70;;;;;;5052156;28;20458;-70
2022/05/29 07:07:58;;;;;;;11.13;10.10;;;14.60;98.20;;;;;;5049154;28;20412;-70
2022/05/29 07:10:25;;;;;;;11.20;10.10;;;14.40;99.10;;;;;;5052440;28;20503;-70
2022/05/29 07:12:51;;;;;;;11.47;10.27;;;14.30;98.90;;;;;;5052361;28;20510;-70
2022/05/29 07:15:18;;;;;;;11.53;10.43;;;14.20;99.20;;;;;;5051858;28;20474;-70
2022/05/29 07:17:44;;;;;;;12.60;9.97;;;14.20;99.90;;;;;;5045912;28;20550;-70
2022/05/29 07:20:10;;;;;;;13.90;10.60;;;14.10;99.80;;;;;;5052269;28;20469;-70
2022/05/29 07:22:38;;;;;;;11.47;10.47;;;14.10;99.90;;;;;;5052510;28;20222;-70
2022/05/29 07:25:05;;;;;;;11.47;10.27;;;14.10;99.90;;;;;;5051547;28;20413;-70
2022/05/29 07:27:31;;;;;;;439.77;306.47;;;14.00;99.90;;;;;;5049644;28;20496;-70
2022/05/29 07:29:56;;;;;;;127.97;77.77;;;14.00;99.90;;;;;;5050446;28;20432;-70
2022/05/29 07:32:23;;;;;;;14.67;13.17;;;14.00;99.90;;;;;;5047649;28;21751;-70
2022/05/29 07:34:49;;;;;;;13.77;10.93;;;14.00;99.90;;;;;;5040126;28;20169;-70
2022/05/29 07:37:16;;;;;;;11.00;9.90;;;14.10;99.90;;;;;;5052638;28;20953;-70
2022/05/29 07:39:48;;;;;;;10.10;9.10;;;14.20;99.90;;;;;;5049902;28;20188;-70
2022/05/29 07:44:59;;;;;;;10.50;9.17;;;14.30;99.90;;;;;;5032145;28;20403;-70
2022/05/29 07:47:29;;;;;;;10.53;9.53;;;14.30;99.90;;;;;;5048555;28;20438;-70
2022/05/29 07:49:58;;;;;;;11.53;10.27;;;14.30;99.90;;;;;;5049544;28;20515;-70
2022/05/29 07:52:24;;;;;;;11.57;10.43;;;14.40;99.90;;;;;;5052679;28;20416;-70
2022/05/29 07:54:52;;;;;;;12.33;10.67;;;14.40;99.90;;;;;;5042712;28;20531;-70
2022/05/29 07:57:18;;;;;;;13.77;9.43;;;14.40;99.80;;;;;;5050495;28;20970;-71
2022/05/29 07:59:44;;;;;;;10.10;9.10;;;14.50;99.70;;;;;;5051758;28;20502;-70
2022/05/29 08:02:10;;;;;;;13.23;9.10;;;14.60;99.90;;;;;;5051555;28;20495;-70
2022/05/29 08:04:36;;;;;;;9.73;8.83;;;14.60;99.90;;;;;;5049546;28;20601;-70
2022/05/29 08:07:02;;;;;;;11.73;9.30;;;14.80;99.90;;;;;;5050895;28;20233;-70
2022/05/29 08:09:28;;;;;;;10.73;9.60;;;14.80;99.30;;;;;;5051582;28;20434;-70
2022/05/29 08:11:53;;;;;;;9.80;8.70;;;14.80;99.30;;;;;;5051160;28;20978;-70
2022/05/29 08:14:19;;;;;;;12.90;8.63;;;14.80;99.70;;;;;;5051622;28;20189;-69
2022/05/29 08:16:45;;;;;;;9.03;8.20;;;14.80;99.40;;;;;;5051086;28;20219;-75
2022/05/29 08:19:10;;;;;;;10.70;8.97;;;14.80;99.60;;;;;;5051871;28;20173;-70
2022/05/29 08:21:36;;;;;;;11.10;8.67;;;14.70;99.90;;;;;;5051783;28;20228;-69
2022/05/29 08:32:15;;;;;;;9.60;8.70;;;14.50;99.90;;;;;;5051560;28;20755;-70
2022/05/29 08:34:43;;;;;;;11.03;9.33;;;14.50;99.90;;;;;;5051294;28;20999;-70
2022/05/29 08:37:10;;;;;;;9.17;8.23;;;14.50;99.60;;;;;;5051557;28;20448;-69
2022/05/29 08:39:36;;;;;;;215.93;136.60;;;14.50;99.30;;;;;;5051535;28;20424;-70
2022/05/29 08:42:02;;;;;;;110.30;74.27;;;14.60;99.90;;;;;;5050030;28;20415;-70
2022/05/29 08:44:45;;;;;;;16.50;13.03;;;14.60;99.90;;;;;;5051819;28;20186;-70
2022/05/29 08:47:10;;;;;;;10.23;9.23;;;14.70;99.90;;;;;;5054570;28;20404;-70
2022/05/29 08:49:47;;;;;;;11.63;9.13;;;14.70;99.90;;;;;;5053715;28;20422;-70
2022/05/29 08:52:21;;;;;;;12.60;9.87;;;14.70;99.90;;;;;;5055257;28;20191;-69
2022/05/29 08:55:05;;;;;;;10.90;8.73;;;14.70;99.90;;;;;;5053448;28;20458;-77
2022/05/29 08:57:53;;;;;;;9.70;8.80;;;14.80;99.90;;;;;;5060333;28;20543;-70
2022/05/29 09:00:51;;;;;;;8.63;7.80;;;14.70;99.90;;;;;;5054808;28;20429;-70
2022/05/29 09:03:23;;;;;;;7.70;7.10;;;14.80;99.90;;;;;;5055140;28;20396;-69
2022/05/29 09:05:58;;;;;;;8.90;7.50;;;14.80;99.90;;;;;;5054382;28;20408;-70
2022/05/29 09:08:59;;;;;;;6.40;5.87;;;14.70;99.50;;;;;;5054087;28;20529;-70
2022/05/29 09:11:32;;;;;;;8.83;6.77;;;14.70;98.90;;;;;;5054922;28;20480;-70
2022/05/29 09:14:10;;;;;;;8.67;7.87;;;14.80;99.60;;;;;;5053326;28;20425;-70
2022/05/29 09:16:46;;;;;;;8.30;7.43;;;14.80;99.90;;;;;;5055197;28;20852;-70
2022/05/29 09:19:21;;;;;;;8.47;7.60;;;15.10;99.90;;;;;;5055440;28;20419;-70
2022/05/29 09:21:55;;;;;;;8.87;8.03;;;15.30;99.90;;;;;;5053090;28;20472;-76
2022/05/29 09:24:40;;;;;;;8.07;6.73;;;15.60;99.90;;;;;;5052396;28;20436;-68
2022/05/29 09:27:08;;;;;;;4.50;4.03;;;15.80;99.00;;;;;;5053735;28;21003;-68
2022/05/29 09:29:36;;;;;;;6.20;5.80;;;15.90;96.10;;;;;;5033878;28;20428;-67
2022/05/29 09:32:05;;;;;;;18.90;13.37;;;16.00;95.50;;;;;;5052797;28;20427;-70
2022/05/29 09:34:31;;;;;;;33.03;25.00;;;16.10;95.10;;;;;;5053533;28;20408;-68
2022/05/29 09:37:21;;;;;;;22.63;17.20;;;16.10;95.30;;;;;;5051580;28;21196;-68
2022/05/29 09:39:54;;;;;;;9.40;7.00;;;16.10;96.80;;;;;;5049222;28;20438;-75
2022/05/29 09:42:37;;;;;;;8.70;6.30;;;16.00;97.60;;;;;;5049227;28;20481;-68
2022/05/29 09:45:17;;;;;;;6.87;6.10;;;16.00;97.40;;;;;;5050831;28;20906;-69
2022/05/29 09:50:42;;;;;;;9.50;8.50;;;15.90;96.90;;;;;;5047075;28;20889;-68
2022/05/29 09:53:12;;;;;;;240.63;148.67;;;15.80;95.50;;;;;;5049316;28;21046;-72
2022/05/29 09:55:39;;;;;;;308.90;209.63;;;15.80;95.50;;;;;;5049427;28;20434;-67
2022/05/29 09:58:13;;;;;;;15.47;13.83;;;15.80;95.70;;;;;;5050920;28;20471;-68
2022/05/29 10:00:58;;;;;;;7.80;7.00;;;15.80;94.80;;;;;;5050184;28;20431;-67
2022/05/29 10:03:57;;;;;;;8.43;7.70;;;15.90;95.00;;;;;;5051044;28;20494;-68
2022/05/29 10:06:42;;;;;;;8.10;7.40;;;15.80;94.80;;;;;;5050897;28;20479;-68
2022/05/29 10:09:19;;;;;;;8.00;7.40;;;15.80;95.50;;;;;;5063301;28;20673;-67
2022/05/29 10:11:58;;;;;;;6.93;6.33;;;15.70;98.30;;;;;;5072639;28;20453;-67
2022/05/29 10:14:43;;;;;;;5.57;5.07;;;15.60;99.90;;;;;;5036705;28;20439;-72
2022/05/29 10:17:36;;;;;;;5.30;4.97;;;15.40;98.90;;;;;;5041514;28;20571;-68
2022/05/29 10:20:03;;;;;;;5.10;4.80;;;15.30;98.80;;;;;;5045095;28;20450;-67
2022/05/29 10:22:41;;;;;;;5.63;5.13;;;15.20;99.40;;;;;;5053342;28;20546;-66
2022/05/29 10:25:20;;;;;;;645.40;422.77;;;15.10;99.90;;;;;;5050694;28;20435;-67
2022/05/29 10:27:48;;;;;;;57.93;39.73;;;15.00;99.90;;;;;;5047802;28;20856;-66
2022/05/29 10:30:27;;;;;;;6.00;5.47;;;14.90;99.90;;;;;;5058605;28;20462;-67
2022/05/29 10:33:19;;;;;;;5.43;4.93;;;14.80;99.90;;;;;;5073036;28;20464;-72
2022/05/29 10:35:46;;;;;;;5.37;4.73;;;14.80;99.90;;;;;;5051403;28;20430;-67
2022/05/29 10:38:25;;;;;;;5.70;5.30;;;14.80;99.90;;;;;;5051779;28;20970;-66
2022/05/29 10:40:57;;;;;;;6.90;6.40;;;14.80;99.90;;;;;;5046025;28;20518;-72
2022/05/29 10:43:38;;;;;;;7.50;5.53;;;14.90;99.90;;;;;;5051117;28;20453;-66
2022/05/29 10:46:39;;;;;;;5.80;5.30;;;15.00;99.90;;;;;;5049012;28;20824;-67
2022/05/29 10:49:46;;;;;;;5.77;5.47;;;15.00;99.90;;;;;;5041395;28;20430;-68
2022/05/29 10:52:11;;;;;;;4.53;4.33;;;15.10;99.90;;;;;;5041315;28;20951;-67
2022/05/29 10:55:08;;;;;;;6.83;5.43;;;15.20;99.90;;;;;;5052780;28;20429;-67
2022/05/29 10:58:12;;;;;;;5.30;4.90;;;15.20;99.90;;;;;;5032733;28;20459;-66
2022/05/29 11:04:28;;;;;;;5.83;5.30;;;15.20;99.90;;;;;;5032013;28;20520;-67
2022/05/29 11:07:12;;;;;;;5.33;4.93;;;15.30;99.90;;;;;;5028799;28;20589;-72
2022/05/29 11:09:52;;;;;;;6.00;4.90;;;15.40;99.90;;;;;;5052093;28;20415;-67
2022/05/29 11:12:43;;;;;;;4.63;4.33;;;15.60;99.90;;;;;;5051835;28;20423;-67
2022/05/29 11:15:17;;;;;;;4.63;4.10;;;15.70;97.70;;;;;;5051768;28;20400;-67
2022/05/29 11:18:04;;;;;;;4.63;4.33;;;15.90;96.50;;;;;;5051262;28;20474;-67
2022/05/29 11:20:49;;;;;;;4.43;4.10;;;16.00;97.10;;;;;;5052375;28;20478;-67
2022/05/29 11:23:43;;;;;;;4.60;4.13;;;16.10;97.60;;;;;;5051560;28;20388;-67
2022/05/29 11:26:33;;;;;;;105.43;74.60;;;16.20;98.90;;;;;;5051441;28;20481;-67
2022/05/29 11:29:36;;;;;;;5.30;4.80;;;16.30;97.90;;;;;;5050925;28;20494;-67
2022/05/29 11:32:14;;;;;;;5.47;4.97;;;16.30;97.90;;;;;;5031683;28;20508;-67
2022/05/29 11:35:07;;;;;;;4.40;4.07;;;16.70;99.90;;;;;;5032704;28;20427;-67
2022/05/29 11:38:09;;;;;;;4.30;4.00;;;17.10;97.60;;;;;;5052060;28;20818;-67
2022/05/29 11:40:43;;;;;;;4.23;3.87;;;17.50;96.70;;;;;;5050194;28;20542;-67
2022/05/29 11:43:27;;;;;;;4.60;4.20;;;17.60;94.10;;;;;;5049344;28;20513;-67
2022/05/29 11:52:31;;;;;;;4.70;4.40;;;17.60;93.60;;;;;;5050826;28;20737;-67
2022/05/29 11:55:17;;;;;;;4.90;4.60;;;17.60;93.70;;;;;;5051265;28;20400;-72
2022/05/29 11:57:58;;;;;;;4.70;3.50;;;17.50;95.00;;;;;;5050490;28;20463;-66
2022/05/29 12:00:36;;;;;;;4.10;3.70;;;17.20;96.30;;;;;;5051982;28;20519;-67
2022/05/29 12:03:31;;;;;;;3.80;3.50;;;17.00;96.50;;;;;;5051279;28;20481;-66
2022/05/29 12:06:21;;;;;;;5.63;4.33;;;16.80;97.30;;;;;;5051527;28;20408;-72
2022/05/29 12:09:28;;;;;;;3.83;3.60;;;16.50;98.70;;;;;;5051864;28;20416;-66
2022/05/29 12:12:36;;;;;;;3.70;3.40;;;16.20;99.90;;;;;;5049924;28;20407;-67
2022/05/29 12:15:07;;;;;;;3.37;3.27;;;16.00;99.90;;;;;;5031271;28;20503;-67
2022/05/29 12:17:48;;;;;;;4.03;3.63;;;15.90;99.90;;;;;;5031855;28;20508;-67
2022/05/29 12:20:49;;;;;;;3.87;3.50;;;15.80;99.90;;;;;;5046460;28;20485;-66
2022/05/29 12:23:27;;;;;;;3.90;3.70;;;15.80;99.90;;;;;;5052611;28;20475;-66
2022/05/29 12:26:14;;;;;;;3.70;3.40;;;15.70;99.90;;;;;;5050381;28;20448;-67
2022/05/29 12:28:45;;;;;;;3.50;3.20;;;15.80;99.90;;;;;;5064093;28;20812;-67
2022/05/29 12:31:36;;;;;;;3.50;3.30;;;15.80;99.90;;;;;;5067269;28;20847;-67
2022/05/29 12:34:03;;;;;;;3.00;2.80;;;15.70;99.90;;;;;;5074267;28;20429;-67
2022/05/29 12:37:29;;;;;;;3.30;3.20;;;15.80;99.90;;;;;;5060182;28;20819;-67
2022/05/29 12:40:07;;;;;;;3.00;2.90;;;15.80;99.90;;;;;;4993734;28;20441;-67
2022/05/29 12:43:19;;;;;;;3.67;3.47;;;15.80;98.90;;;;;;4997637;28;20905;-67
2022/05/29 12:45:47;;;;;;;3.83;3.53;;;15.90;99.90;;;;;;5060592;28;20513;-67
2022/05/29 12:48:22;;;;;;;2.73;2.53;;;15.80;98.70;;;;;;5054852;28;20427;-67
2022/05/29 12:51:02;;;;;;;2.83;2.60;;;15.90;98.40;;;;;;5054303;28;20931;-66
2022/05/29 12:53:57;;;;;;;69.37;47.47;;;15.90;98.10;;;;;;5035363;28;20409;-66
2022/05/29 12:56:49;;;;;;;291.37;208.50;;;16.00;99.10;;;;;;5044260;28;20487;-67
2022/05/29 12:59:46;;;;;;;7.87;5.30;;;15.90;99.90;;;;;;5053319;28;20427;-67
2022/05/29 13:02:26;;;;;;;3.53;3.33;;;16.00;99.90;;;;;;5054990;28;20748;-67
2022/05/29 13:05:17;;;;;;;3.60;3.40;;;15.90;99.90;;;;;;5055588;28;20403;-66
2022/05/29 13:08:21;;;;;;;4.23;4.00;;;15.90;99.90;;;;;;5055421;28;20727;-66
2022/05/29 13:10:52;;;;;;;4.50;4.10;;;15.80;98.60;;;;;;5055465;28;20405;-66
2022/05/29 13:13:29;;;;;;;3.73;3.43;;;15.60;98.90;;;;;;5053265;28;20689;-67
2022/05/29 13:16:15;;;;;;;3.80;3.43;;;15.50;99.10;;;;;;5053828;28;20444;-66
2022/05/29 13:21:32;;;;;;;3.77;3.53;;;15.40;99.90;;;;;;5051111;28;20477;-67
2022/05/29 13:23:58;;;;;;;4.07;3.77;;;15.50;99.90;;;;;;5053835;28;20453;-67
2022/05/29 13:26:30;;;;;;;4.10;3.90;;;15.30;99.90;;;;;;5051767;28;20231;-66
2022/05/29 13:29:02;;;;;;;3.30;3.20;;;15.40;99.90;;;;;;5054684;28;20516;-66
2022/05/29 13:31:33;;;;;;;226.33;138.27;;;15.30;99.90;;;;;;5052805;28;20527;-66
2022/05/29 13:34:31;;;;;;;19.73;14.80;;;15.30;99.90;;;;;;5053205;28;20488;-66
2022/05/29 13:37:03;;;;;;;9.23;8.37;;;15.50;99.90;;;;;;5042347;28;20474;-65
2022/05/29 13:39:28;;;;;;;11.23;9.13;;;15.60;99.90;;;;;;5054098;28;20417;-65
2022/05/29 13:41:59;;;;;;;3.53;3.20;;;15.60;99.90;;;;;;5053009;28;20433;-66
2022/05/29 13:44:42;;;;;;;3.33;3.13;;;15.10;99.90;;;;;;5052421;28;20192;-65
2022/05/29 13:47:22;;;;;;;4.10;3.50;;;15.00;99.90;;;;;;5050206;28;20430;-66
2022/05/29 13:49:50;;;;;;;3.57;3.37;;;15.00;99.90;;;;;;5049371;28;20484;-67
2022/05/29 13:52:21;;;;;;;4.70;3.70;;;15.10;99.90;;;;;;5050455;28;20429;-66
2022/05/29 13:55:07;;;;;;;4.00;3.80;;;15.10;99.90;;;;;;5032176;28;20418;-70
2022/05/29 14:06:25;;;;;;;4.20;3.80;;;15.40;99.90;;;;;;5044226;28;21000;-65
2022/05/29 14:08:56;;;;;;;3.90;3.57;;;15.20;99.90;;;;;;5052884;28;20556;-66